Weather at Jirah Air Base

Public forecast

Using degrees Celsius for public forecast. Weather courtesy of forecast.io.

Closest aviation weather report (METAR) to Jirah Air Base

Report is more than 2 hours old.

Closest report is Aleppo International Airport, 34.9 nm (64.6 km) W.

2024/06/16 18:00 (retrieved 3 hours ago)

OSAP 161800Z 30008KT CAVOK 30/05 Q1008

Closest aviation forecast (TAF) to Jirah Air Base

Forecast is more than 6 hours old.

Closest forecast is Aleppo International Airport, 34.9 nm (64.6 km) W.

2024/06/16 12:42 (retrieved 8 hours ago)

TAF TAF OSAP 161100Z 1612/1712 33008KT CAVOK TEMPO 1617/1621 33015KT